Buoy 53593

sailwx.info

Track history (hours):
 
Tides and Currents Weather Stations Pressure Air Temp Water Temp Dewpoint Dewpoint Depression Visibility Wind Speed Wind Dir Waves Ship Positions

Drifting buoy 53593

Last reported at 2017-Nov-19 12:00 UTC. Time now 2017-Nov-19 14:18 UTC.
Position S 24°52' E 086°12'.

Barometer 1016.8 mb
Water temperature 22.5 ° C

Date/timePositionNaut miles runAvg speedWind from/ knotsBaromVisibWave heightAir tempDewpointWater temp
2017-Nov-19 12:00S 24°52' E 086°12'1 1.2 1016.8 22.5
2017-Nov-19 11:00S 24°52' E 086°11'1 1.3 1016.4 22.5
2017-Nov-19 10:00S 24°51' E 086°10'0 0.0 1016.4 22.5
2017-Nov-19 09:00S 24°51' E 086°10'1 0.1 1016.6 22.5
2017-Nov-19 04:00S 24°51' E 086°11'0 0.0 1017.9 22.5
2017-Nov-19 03:00S 24°51' E 086°11'1 0.5 1017.8 22.5
2017-Nov-19 02:00S 24°51' E 086°10'1 0.8 1017.3 22.5
2017-Nov-19 01:00S 24°50' E 086°11'0 0.0 1016.8 22.5
2017-Nov-19 00:00S 24°50' E 086°11'0 0.0 1016.2 22.5
2017-Nov-18 23:00S 24°50' E 086°11'3 0.4 1015.6 22.5
2017-Nov-18 16:00S 24°48' E 086°12'0 0.0 1017.4 22.6
2017-Nov-18 15:00S 24°48' E 086°12'1 0.6 1017.2 22.6
2017-Nov-18 13:00S 24°47' E 086°11'0 0.0 1016.5 22.7
2017-Nov-18 12:00S 24°47' E 086°11'1 0.4 1015.7 22.8
2017-Nov-18 10:00S 24°47' E 086°10'0 0.0 1015.4 22.8
2017-Nov-18 09:00S 24°47' E 086°10'1 0.2 1015.6 22.8
2017-Nov-18 04:00S 24°47' E 086°09'1 0.5 1018.1 22.5
2017-Nov-18 03:00S 24°47' E 086°08'0 0.0 1018.1 22.4
2017-Nov-18 02:00S 24°47' E 086°08'1 0.8 1018.0 22.4
2017-Nov-18 01:00S 24°46' E 086°08'1 1.3 1017.5 22.4
2017-Nov-18 00:00S 24°45' E 086°07'1 0.2 1017.0 22.4
2017-Nov-17 20:00S 24°44' E 086°07'1 0.3 1016.3 22.5
2017-Nov-17 17:00S 24°44' E 086°07'1 0.6 1017.0 22.5
2017-Nov-17 16:00S 24°43' E 086°07'1 0.5 1017.1 22.5
2017-Nov-17 15:00S 24°43' E 086°08'1 0.5 1016.9 22.5
2017-Nov-17 14:00S 24°43' E 086°07'1 0.5 1016.7 22.5
2017-Nov-17 13:00S 24°43' E 086°08'0 0.0 1016.5 22.5
2017-Nov-17 12:00S 24°43' E 086°08'1 0.8 1015.9 22.6
2017-Nov-17 11:00S 24°44' E 086°07'0 0.0 1015.9 22.6
2017-Nov-17 10:00S 24°44' E 086°07'1 0.2 1015.6 22.6
2017-Nov-17 04:00S 24°44' E 086°06'1 0.8 1018.7 22.5
2017-Nov-17 03:00S 24°44' E 086°05'0 0.0 1018.7 22.5
2017-Nov-17 02:00S 24°44' E 086°05'1 0.6 1018.5 22.4
2017-Nov-17 01:00S 24°44' E 086°05'1 0.8 1018.0 22.4
2017-Nov-17 00:00S 24°44' E 086°05'0 0.0 1017.6 22.4
2017-Nov-16 23:00S 24°44' E 086°05'1 0.8 1017.3 22.4
2017-Nov-16 22:00S 24°43' E 086°04'1 0.6 1017.2 22.5
2017-Nov-16 21:00S 24°43' E 086°04'1 0.1 1016.9 22.5
2017-Nov-16 16:00S 24°43' E 086°05'0 0.0 1018.3 22.5
2017-Nov-16 15:00S 24°43' E 086°05'0 0.0 1017.9 22.6
2017-Nov-16 13:00S 24°43' E 086°05'1 0.8 1016.7 22.6
2017-Nov-16 12:00S 24°43' E 086°05'1 0.6 1016.2 22.6
2017-Nov-16 11:00S 24°43' E 086°05'1 0.8 1015.7 22.7
2017-Nov-16 10:00S 24°43' E 086°05'0 0.0 1015.6 22.7
2017-Nov-16 09:00S 24°43' E 086°05'2 0.3 1015.5 22.7
2017-Nov-16 03:00S 24°45' E 086°05'1 1.3 1016.7 22.6
2017-Nov-16 02:00S 24°46' E 086°05'0 0.0 1016.7 22.5
2017-Nov-16 01:00S 24°46' E 086°05'0 0.0 1016.5 22.5
2017-Nov-16 00:00S 24°46' E 086°05'0 0.0 1015.9 22.6
2017-Nov-15 23:00S 24°46' E 086°05'0 0.0 1015.1 22.6
2017-Nov-15 22:00S 24°46' E 086°05'1 0.5 1014.7 22.6
2017-Nov-15 21:00S 24°46' E 086°04'1 0.3 1014.8 22.7
2017-Nov-15 16:00S 24°47' E 086°05'1 1.3 1016.8 23.2
2017-Nov-15 15:00S 24°49' E 086°04'0 0.0 1016.6 23.3
2017-Nov-15 14:00S 24°49' E 086°04'1 1.1 1016.2 23.3
2017-Nov-15 13:00S 24°49' E 086°03'1 0.8 1015.9 23.8
2017-Nov-15 12:00S 24°49' E 086°04'1 0.6 1015.7 24.3
2017-Nov-15 11:00S 24°50' E 086°04'1 1.1 1015.6 24.7
2017-Nov-15 10:00S 24°50' E 086°02'0 0.0 1015.5 25.8
2017-Nov-15 09:00S 24°50' E 086°02'1 1.3 1015.7 25.2
2017-Nov-15 08:00S 24°51' E 086°02'1 0.1 1015.9 26.1
2017-Nov-15 03:00S 24°52' E 086°02'1 0.4 1017.3 22.5
2017-Nov-15 01:00S 24°52' E 086°01'0 0.0 1016.8 22.4
2017-Nov-15 00:00S 24°52' E 086°01'0 0.0 1016.5 22.4
2017-Nov-14 23:00S 24°52' E 086°01'0 0.0 1016.2 22.4
2017-Nov-14 22:00S 24°52' E 086°01'0 0.0 1016.1 22.4
2017-Nov-14 21:00S 24°52' E 086°01'1 0.3 1015.9 22.4
2017-Nov-14 16:00S 24°53' E 086°02'0 0.0 1018.3 22.5
2017-Nov-14 15:00S 24°53' E 086°02'1 1.2 1018.2 22.5
2017-Nov-14 14:00S 24°54' E 086°01'1 0.5 1017.8 22.5
2017-Nov-14 12:00S 24°54' E 086°02'1 0.5 1016.7 22.6
2017-Nov-14 11:00S 24°54' E 086°01'0 0.0 1016.4 22.6
2017-Nov-14 10:00S 24°54' E 086°01'2 1.8 1016.1 22.6
2017-Nov-14 09:00S 24°56' E 086°01'0 0.0 1016.2 22.6
2017-Nov-14 04:00S 24°56' E 086°01'1 0.8 1019.0 22.3
2017-Nov-14 03:00S 24°56' E 086°01'1 0.3 1018.9 22.3
2017-Nov-14 01:00S 24°57' E 086°01'1 0.5 1018.7 22.3
2017-Nov-14 00:00S 24°57' E 086°01'1 0.5 1018.5 22.3
2017-Nov-13 23:00S 24°57' E 086°01'0 0.0 1018.1 22.3
2017-Nov-13 22:00S 24°57' E 086°01'2 0.3 1018.0 22.3
2017-Nov-13 17:00S 24°57' E 086°02'1 0.5 1019.8 22.3
2017-Nov-13 16:00S 24°57' E 086°02'2 2.1 1020.0 22.3
2017-Nov-13 15:00S 24°59' E 086°03'0 0.0 1019.3 22.3
2017-Nov-13 14:00S 24°59' E 086°03'1 0.4 1018.9 22.3
2017-Nov-13 12:00S 24°59' E 086°04'1 0.6 1018.0 22.4
2017-Nov-13 11:00S 25°00' E 086°04'0 0.0 1017.5 22.4
2017-Nov-13 10:00S 25°00' E 086°04'2 2.1 1017.4 22.4
2017-Nov-13 09:00S 25°02' E 086°05'1 0.2 1018.1 22.4
2017-Nov-13 04:00S 25°02' E 086°06'0 0.0 1019.6 22.2
2017-Nov-13 03:00S 25°02' E 086°06'1 0.6 1020.0 22.2
2017-Nov-13 01:00S 25°04' E 086°06'1 0.8 1020.0 22.2
2017-Nov-13 00:00S 25°04' E 086°07'0 0.0 1019.6 22.2
2017-Nov-12 22:00S 25°04' E 086°07'2 1.6 1018.9 22.3
2017-Nov-12 21:00S 25°05' E 086°08'1 0.3 1018.7 22.3
2017-Nov-12 17:00S 25°05' E 086°09'1 0.8 1020.2 22.3
2017-Nov-12 16:00S 25°05' E 086°10'0 0.0 1020.2 22.4
2017-Nov-12 15:00S 25°05' E 086°10'1 0.5 1019.8 22.4
2017-Nov-12 14:00S 25°05' E 086°10'0 0.0 1020.0 22.5
2017-Nov-12 13:00S 25°05' E 086°10'1 1.2 1019.6 22.5
2017-Nov-12 12:00S 25°06' E 086°11'1 1.2 1019.5 22.5
2017-Nov-12 11:00S 25°07' E 086°13'0 0.0 1019.3 22.6
2017-Nov-12 10:00S 25°07' E 086°13'4 3.6 1018.9 22.6
2017-Nov-12 09:00S 25°09' E 086°16'0 0.0 1019.2 22.6
2017-Nov-12 04:00S 25°09' E 086°16'1 0.8 1020.7 22.2
2017-Nov-12 03:00S 25°10' E 086°16'0 0.0 1020.6 22.2
2017-Nov-12 02:00S 25°10' E 086°16'2 1.6 1020.8 22.1
2017-Nov-12 01:00S 25°10' E 086°18'0 0.0 1020.6 22.1
2017-Nov-12 00:00S 25°10' E 086°18'2 1.9 1020.2 22.1
2017-Nov-11 23:00S 25°11' E 086°17'0 0.0 1019.6 22.1
2017-Nov-11 22:00S 25°11' E 086°17'2 0.4 1019.3 22.1
2017-Nov-11 16:00S 25°12' E 086°20'0 0.0 1020.5 22.3
2017-Nov-11 15:00S 25°12' E 086°20'2 1.6 1020.5 22.3
2017-Nov-11 14:00S 25°12' E 086°22'1 0.5 1020.4 22.4
2017-Nov-11 13:00S 25°12' E 086°22'1 0.5 1019.7 22.4
2017-Nov-11 12:00S 25°12' E 086°22'6 6.2 1019.3 22.5
2017-Nov-11 11:00S 25°14' E 086°28'0 0.0 1019.0 22.6
2017-Nov-11 10:00S 25°14' E 086°28'1 0.1 1019.0 22.6
2017-Nov-11 03:00S 25°14' E 086°29'1 0.7 1020.8 22.2
2017-Nov-11 01:00S 25°15' E 086°29'1 0.5 1020.4 22.1
2017-Nov-11 00:00S 25°15' E 086°30'1 1.1 1019.7 22.1
2017-Nov-10 23:00S 25°15' E 086°31'1 0.3 1019.0 22.2
2017-Nov-10 20:00S 25°14' E 086°32'2 0.4 1018.8 22.2
2017-Nov-10 16:00S 25°14' E 086°34'1 1.2 1019.3 22.6
2017-Nov-10 15:00S 25°15' E 086°35'0 0.0 1018.7 22.8
2017-Nov-10 14:00S 25°15' E 086°35'1 0.3 1018.7 22.9
2017-Nov-10 12:00S 25°15' E 086°35'0 0.0 1017.6 22.9
2017-Nov-10 11:00S 25°15' E 086°35'0 0.0 1017.2 23.0
2017-Nov-10 10:00S 25°15' E 086°35'0 0.0 1016.8 23.6
2017-Nov-10 09:00S 25°15' E 086°35'0 0.0 1017.0 23.7
2017-Nov-10 08:00S 25°15' E 086°35'4 0.7 1017.0 23.2
2017-Nov-10 03:00S 25°13' E 086°39'0 0.0 1017.5 22.0
2017-Nov-10 02:00S 25°13' E 086°39'0 0.0 1017.4 21.9
2017-Nov-10 01:00S 25°13' E 086°39'1 1.1 1017.2 21.9
2017-Nov-10 00:00S 25°13' E 086°40'0 0.0 1016.6 21.9
2017-Nov-09 23:00S 25°13' E 086°40'1 0.6 1016.0 21.9
2017-Nov-09 22:00S 25°13' E 086°40'1 0.5 1015.7 21.9
2017-Nov-09 21:00S 25°13' E 086°41'0 0.0 1016.0 21.9
2017-Nov-09 20:00S 25°13' E 086°41'2 0.4 1016.1 21.9
2017-Nov-09 16:00S 25°12' E 086°43'1 0.5 1017.7 22.0
2017-Nov-09 15:00S 25°12' E 086°43'0 0.0 1017.1 22.1
2017-Nov-09 14:00S 25°12' E 086°43'1 0.8 1016.8 22.1
2017-Nov-09 13:00S 25°11' E 086°43'1 1.1 1016.0 22.2
2017-Nov-09 12:00S 25°11' E 086°44'   1015.3 22.3
Track history (hours):
 
Tides and Currents Weather Stations Pressure Air Temp Water Temp Dewpoint Dewpoint Depression Visibility Wind Speed Wind Dir Waves Ship Positions

Drifting buoy 53593

Last reported at 2017-Nov-19 12:00 UTC. Time now 2017-Nov-19 14:18 UTC.
Position S 24°52' E 086°12'.

Barometer 1016.8 mb
Water temperature 22.5 ° C

Date/timePositionNaut miles runAvg speedWind from/ knotsBaromVisibWave heightAir tempDewpointWater temp
2017-Nov-19 12:00S 24°52' E 086°12'1 1.2 1016.8 22.5
2017-Nov-19 11:00S 24°52' E 086°11'1 1.3 1016.4 22.5
2017-Nov-19 10:00S 24°51' E 086°10'0 0.0 1016.4 22.5
2017-Nov-19 09:00S 24°51' E 086°10'1 0.1 1016.6 22.5
2017-Nov-19 04:00S 24°51' E 086°11'0 0.0 1017.9 22.5
2017-Nov-19 03:00S 24°51' E 086°11'1 0.5 1017.8 22.5
2017-Nov-19 02:00S 24°51' E 086°10'1 0.8 1017.3 22.5
2017-Nov-19 01:00S 24°50' E 086°11'0 0.0 1016.8 22.5
2017-Nov-19 00:00S 24°50' E 086°11'0 0.0 1016.2 22.5
2017-Nov-18 23:00S 24°50' E 086°11'3 0.4 1015.6 22.5
2017-Nov-18 16:00S 24°48' E 086°12'0 0.0 1017.4 22.6
2017-Nov-18 15:00S 24°48' E 086°12'1 0.6 1017.2 22.6
2017-Nov-18 13:00S 24°47' E 086°11'0 0.0 1016.5 22.7
2017-Nov-18 12:00S 24°47' E 086°11'1 0.4 1015.7 22.8
2017-Nov-18 10:00S 24°47' E 086°10'0 0.0 1015.4 22.8
2017-Nov-18 09:00S 24°47' E 086°10'1 0.2 1015.6 22.8
2017-Nov-18 04:00S 24°47' E 086°09'1 0.5 1018.1 22.5
2017-Nov-18 03:00S 24°47' E 086°08'0 0.0 1018.1 22.4
2017-Nov-18 02:00S 24°47' E 086°08'1 0.8 1018.0 22.4
2017-Nov-18 01:00S 24°46' E 086°08'1 1.3 1017.5 22.4
2017-Nov-18 00:00S 24°45' E 086°07'1 0.2 1017.0 22.4
2017-Nov-17 20:00S 24°44' E 086°07'1 0.3 1016.3 22.5
2017-Nov-17 17:00S 24°44' E 086°07'1 0.6 1017.0 22.5
2017-Nov-17 16:00S 24°43' E 086°07'1 0.5 1017.1 22.5
2017-Nov-17 15:00S 24°43' E 086°08'1 0.5 1016.9 22.5
2017-Nov-17 14:00S 24°43' E 086°07'1 0.5 1016.7 22.5
2017-Nov-17 13:00S 24°43' E 086°08'0 0.0 1016.5 22.5
2017-Nov-17 12:00S 24°43' E 086°08'1 0.8 1015.9 22.6
2017-Nov-17 11:00S 24°44' E 086°07'0 0.0 1015.9 22.6
2017-Nov-17 10:00S 24°44' E 086°07'1 0.2 1015.6 22.6
2017-Nov-17 04:00S 24°44' E 086°06'1 0.8 1018.7 22.5
2017-Nov-17 03:00S 24°44' E 086°05'0 0.0 1018.7 22.5
2017-Nov-17 02:00S 24°44' E 086°05'1 0.6 1018.5 22.4
2017-Nov-17 01:00S 24°44' E 086°05'1 0.8 1018.0 22.4
2017-Nov-17 00:00S 24°44' E 086°05'0 0.0 1017.6 22.4
2017-Nov-16 23:00S 24°44' E 086°05'1 0.8 1017.3 22.4
2017-Nov-16 22:00S 24°43' E 086°04'1 0.6 1017.2 22.5
2017-Nov-16 21:00S 24°43' E 086°04'1 0.1 1016.9 22.5
2017-Nov-16 16:00S 24°43' E 086°05'0 0.0 1018.3 22.5
2017-Nov-16 15:00S 24°43' E 086°05'0 0.0 1017.9 22.6
2017-Nov-16 13:00S 24°43' E 086°05'1 0.8 1016.7 22.6
2017-Nov-16 12:00S 24°43' E 086°05'1 0.6 1016.2 22.6
2017-Nov-16 11:00S 24°43' E 086°05'1 0.8 1015.7 22.7
2017-Nov-16 10:00S 24°43' E 086°05'0 0.0 1015.6 22.7
2017-Nov-16 09:00S 24°43' E 086°05'2 0.3 1015.5 22.7
2017-Nov-16 03:00S 24°45' E 086°05'1 1.3 1016.7 22.6
2017-Nov-16 02:00S 24°46' E 086°05'0 0.0 1016.7 22.5
2017-Nov-16 01:00S 24°46' E 086°05'0 0.0 1016.5 22.5
2017-Nov-16 00:00S 24°46' E 086°05'0 0.0 1015.9 22.6
2017-Nov-15 23:00S 24°46' E 086°05'0 0.0 1015.1 22.6
2017-Nov-15 22:00S 24°46' E 086°05'1 0.5 1014.7 22.6
2017-Nov-15 21:00S 24°46' E 086°04'1 0.3 1014.8 22.7
2017-Nov-15 16:00S 24°47' E 086°05'1 1.3 1016.8 23.2
2017-Nov-15 15:00S 24°49' E 086°04'0 0.0 1016.6 23.3
2017-Nov-15 14:00S 24°49' E 086°04'1 1.1 1016.2 23.3
2017-Nov-15 13:00S 24°49' E 086°03'1 0.8 1015.9 23.8
2017-Nov-15 12:00S 24°49' E 086°04'1 0.6 1015.7 24.3
2017-Nov-15 11:00S 24°50' E 086°04'1 1.1 1015.6 24.7
2017-Nov-15 10:00S 24°50' E 086°02'0 0.0 1015.5 25.8
2017-Nov-15 09:00S 24°50' E 086°02'1 1.3 1015.7 25.2
2017-Nov-15 08:00S 24°51' E 086°02'1 0.1 1015.9 26.1
2017-Nov-15 03:00S 24°52' E 086°02'1 0.4 1017.3 22.5
2017-Nov-15 01:00S 24°52' E 086°01'0 0.0 1016.8 22.4
2017-Nov-15 00:00S 24°52' E 086°01'0 0.0 1016.5 22.4
2017-Nov-14 23:00S 24°52' E 086°01'0 0.0 1016.2 22.4
2017-Nov-14 22:00S 24°52' E 086°01'0 0.0 1016.1 22.4
2017-Nov-14 21:00S 24°52' E 086°01'1 0.3 1015.9 22.4
2017-Nov-14 16:00S 24°53' E 086°02'0 0.0 1018.3 22.5
2017-Nov-14 15:00S 24°53' E 086°02'1 1.2 1018.2 22.5
2017-Nov-14 14:00S 24°54' E 086°01'1 0.5 1017.8 22.5
2017-Nov-14 12:00S 24°54' E 086°02'1 0.5 1016.7 22.6
2017-Nov-14 11:00S 24°54' E 086°01'0 0.0 1016.4 22.6
2017-Nov-14 10:00S 24°54' E 086°01'2 1.8 1016.1 22.6
2017-Nov-14 09:00S 24°56' E 086°01'0 0.0 1016.2 22.6
2017-Nov-14 04:00S 24°56' E 086°01'1 0.8 1019.0 22.3
2017-Nov-14 03:00S 24°56' E 086°01'1 0.3 1018.9 22.3
2017-Nov-14 01:00S 24°57' E 086°01'1 0.5 1018.7 22.3
2017-Nov-14 00:00S 24°57' E 086°01'1 0.5 1018.5 22.3
2017-Nov-13 23:00S 24°57' E 086°01'0 0.0 1018.1 22.3
2017-Nov-13 22:00S 24°57' E 086°01'2 0.3 1018.0 22.3
2017-Nov-13 17:00S 24°57' E 086°02'1 0.5 1019.8 22.3
2017-Nov-13 16:00S 24°57' E 086°02'2 2.1 1020.0 22.3
2017-Nov-13 15:00S 24°59' E 086°03'0 0.0 1019.3 22.3
2017-Nov-13 14:00S 24°59' E 086°03'1 0.4 1018.9 22.3
2017-Nov-13 12:00S 24°59' E 086°04'1 0.6 1018.0 22.4
2017-Nov-13 11:00S 25°00' E 086°04'0 0.0 1017.5 22.4
2017-Nov-13 10:00S 25°00' E 086°04'2 2.1 1017.4 22.4
2017-Nov-13 09:00S 25°02' E 086°05'1 0.2 1018.1 22.4
2017-Nov-13 04:00S 25°02' E 086°06'0 0.0 1019.6 22.2
2017-Nov-13 03:00S 25°02' E 086°06'1 0.6 1020.0 22.2
2017-Nov-13 01:00S 25°04' E 086°06'1 0.8 1020.0 22.2
2017-Nov-13 00:00S 25°04' E 086°07'0 0.0 1019.6 22.2
2017-Nov-12 22:00S 25°04' E 086°07'2 1.6 1018.9 22.3
2017-Nov-12 21:00S 25°05' E 086°08'1 0.3 1018.7 22.3
2017-Nov-12 17:00S 25°05' E 086°09'1 0.8 1020.2 22.3
2017-Nov-12 16:00S 25°05' E 086°10'0 0.0 1020.2 22.4
2017-Nov-12 15:00S 25°05' E 086°10'1 0.5 1019.8 22.4
2017-Nov-12 14:00S 25°05' E 086°10'0 0.0 1020.0 22.5
2017-Nov-12 13:00S 25°05' E 086°10'1 1.2 1019.6 22.5
2017-Nov-12 12:00S 25°06' E 086°11'1 1.2 1019.5 22.5
2017-Nov-12 11:00S 25°07' E 086°13'0 0.0 1019.3 22.6
2017-Nov-12 10:00S 25°07' E 086°13'4 3.6 1018.9 22.6
2017-Nov-12 09:00S 25°09' E 086°16'0 0.0 1019.2 22.6
2017-Nov-12 04:00S 25°09' E 086°16'1 0.8 1020.7 22.2
2017-Nov-12 03:00S 25°10' E 086°16'0 0.0 1020.6 22.2
2017-Nov-12 02:00S 25°10' E 086°16'2 1.6 1020.8 22.1
2017-Nov-12 01:00S 25°10' E 086°18'0 0.0 1020.6 22.1
2017-Nov-12 00:00S 25°10' E 086°18'2 1.9 1020.2 22.1
2017-Nov-11 23:00S 25°11' E 086°17'0 0.0 1019.6 22.1
2017-Nov-11 22:00S 25°11' E 086°17'2 0.4 1019.3 22.1
2017-Nov-11 16:00S 25°12' E 086°20'0 0.0 1020.5 22.3
2017-Nov-11 15:00S 25°12' E 086°20'2 1.6 1020.5 22.3
2017-Nov-11 14:00S 25°12' E 086°22'1 0.5 1020.4 22.4
2017-Nov-11 13:00S 25°12' E 086°22'1 0.5 1019.7 22.4
2017-Nov-11 12:00S 25°12' E 086°22'6 6.2 1019.3 22.5
2017-Nov-11 11:00S 25°14' E 086°28'0 0.0 1019.0 22.6
2017-Nov-11 10:00S 25°14' E 086°28'1 0.1 1019.0 22.6
2017-Nov-11 03:00S 25°14' E 086°29'1 0.7 1020.8 22.2
2017-Nov-11 01:00S 25°15' E 086°29'1 0.5 1020.4 22.1
2017-Nov-11 00:00S 25°15' E 086°30'1 1.1 1019.7 22.1
2017-Nov-10 23:00S 25°15' E 086°31'1 0.3 1019.0 22.2
2017-Nov-10 20:00S 25°14' E 086°32'2 0.4 1018.8 22.2
2017-Nov-10 16:00S 25°14' E 086°34'1 1.2 1019.3 22.6
2017-Nov-10 15:00S 25°15' E 086°35'0 0.0 1018.7 22.8
2017-Nov-10 14:00S 25°15' E 086°35'1 0.3 1018.7 22.9
2017-Nov-10 12:00S 25°15' E 086°35'0 0.0 1017.6 22.9
2017-Nov-10 11:00S 25°15' E 086°35'0 0.0 1017.2 23.0
2017-Nov-10 10:00S 25°15' E 086°35'0 0.0 1016.8 23.6
2017-Nov-10 09:00S 25°15' E 086°35'0 0.0 1017.0 23.7
2017-Nov-10 08:00S 25°15' E 086°35'4 0.7 1017.0 23.2
2017-Nov-10 03:00S 25°13' E 086°39'0 0.0 1017.5 22.0
2017-Nov-10 02:00S 25°13' E 086°39'0 0.0 1017.4 21.9
2017-Nov-10 01:00S 25°13' E 086°39'1 1.1 1017.2 21.9
2017-Nov-10 00:00S 25°13' E 086°40'0 0.0 1016.6 21.9
2017-Nov-09 23:00S 25°13' E 086°40'1 0.6 1016.0 21.9
2017-Nov-09 22:00S 25°13' E 086°40'1 0.5 1015.7 21.9
2017-Nov-09 21:00S 25°13' E 086°41'0 0.0 1016.0 21.9
2017-Nov-09 20:00S 25°13' E 086°41'2 0.4 1016.1 21.9
2017-Nov-09 16:00S 25°12' E 086°43'1 0.5 1017.7 22.0
2017-Nov-09 15:00S 25°12' E 086°43'0 0.0 1017.1 22.1
2017-Nov-09 14:00S 25°12' E 086°43'1 0.8 1016.8 22.1
2017-Nov-09 13:00S 25°11' E 086°43'1 1.1 1016.0 22.2
2017-Nov-09 12:00S 25°11' E 086°44'   1015.3 22.3

Dump ship's entire track history